sensor_id;sensor_type;location;lat;lon;timestamp;P1;durP1;ratioP1;P2;durP2;ratioP2
434;SDS011;204;48.942;9.256;2023-02-28T00:01:30;3.25;;;3.05;;
434;SDS011;204;48.942;9.256;2023-02-28T00:03:56;4.45;;;3.40;;
434;SDS011;204;48.942;9.256;2023-02-28T00:06:22;3.67;;;3.23;;
434;SDS011;204;48.942;9.256;2023-02-28T00:08:49;3.80;;;3.60;;
434;SDS011;204;48.942;9.256;2023-02-28T00:11:14;4.13;;;3.57;;
434;SDS011;204;48.942;9.256;2023-02-28T00:13:41;3.67;;;3.47;;
434;SDS011;204;48.942;9.256;2023-02-28T00:16:12;4.93;;;3.83;;
434;SDS011;204;48.942;9.256;2023-02-28T00:18:40;4.85;;;4.00;;
434;SDS011;204;48.942;9.256;2023-02-28T00:21:06;5.00;;;3.58;;
434;SDS011;204;48.942;9.256;2023-02-28T00:23:32;3.90;;;3.65;;
434;SDS011;204;48.942;9.256;2023-02-28T00:25:57;4.27;;;3.70;;
434;SDS011;204;48.942;9.256;2023-02-28T00:28:23;6.10;;;4.00;;
434;SDS011;204;48.942;9.256;2023-02-28T00:30:48;3.47;;;3.27;;
434;SDS011;204;48.942;9.256;2023-02-28T00:33:14;3.40;;;3.20;;
434;SDS011;204;48.942;9.256;2023-02-28T00:35:40;4.10;;;3.90;;
434;SDS011;204;48.942;9.256;2023-02-28T00:38:06;3.93;;;3.70;;
434;SDS011;204;48.942;9.256;2023-02-28T00:40:31;4.30;;;3.93;;
434;SDS011;204;48.942;9.256;2023-02-28T00:42:57;3.50;;;3.30;;
434;SDS011;204;48.942;9.256;2023-02-28T00:45:22;3.73;;;3.53;;
434;SDS011;204;48.942;9.256;2023-02-28T00:47:48;5.07;;;3.70;;
434;SDS011;204;48.942;9.256;2023-02-28T00:50:16;4.18;;;3.92;;
434;SDS011;204;48.942;9.256;2023-02-28T00:52:43;4.60;;;4.35;;
434;SDS011;204;48.942;9.256;2023-02-28T00:55:08;4.20;;;3.97;;
434;SDS011;204;48.942;9.256;2023-02-28T00:57:34;3.90;;;3.70;;
434;SDS011;204;48.942;9.256;2023-02-28T01:00:00;7.10;;;4.80;;
434;SDS011;204;48.942;9.256;2023-02-28T01:02:26;3.72;;;3.53;;
434;SDS011;204;48.942;9.256;2023-02-28T01:04:51;8.10;;;4.80;;
434;SDS011;204;48.942;9.256;2023-02-28T01:07:17;4.00;;;3.80;;
434;SDS011;204;48.942;9.256;2023-02-28T01:09:43;4.10;;;3.90;;
434;SDS011;204;48.942;9.256;2023-02-28T01:12:08;4.90;;;4.60;;
434;SDS011;204;48.942;9.256;2023-02-28T01:14:34;4.00;;;3.60;;
434;SDS011;204;48.942;9.256;2023-02-28T01:17:00;5.30;;;5.00;;
434;SDS011;204;48.942;9.256;2023-02-28T01:19:26;4.00;;;3.80;;
434;SDS011;204;48.942;9.256;2023-02-28T01:21:52;6.33;;;4.37;;
434;SDS011;204;48.942;9.256;2023-02-28T01:24:17;4.83;;;4.53;;
434;SDS011;204;48.942;9.256;2023-02-28T01:26:43;4.47;;;4.13;;
434;SDS011;204;48.942;9.256;2023-02-28T01:29:09;5.50;;;4.27;;
434;SDS011;204;48.942;9.256;2023-02-28T01:31:34;4.73;;;4.43;;
434;SDS011;204;48.942;9.256;2023-02-28T01:34:00;4.70;;;4.20;;
434;SDS011;204;48.942;9.256;2023-02-28T01:36:25;4.33;;;4.10;;
434;SDS011;204;48.942;9.256;2023-02-28T01:38:51;4.83;;;4.30;;
434;SDS011;204;48.942;9.256;2023-02-28T01:41:27;4.95;;;3.65;;
434;SDS011;204;48.942;9.256;2023-02-28T01:43:59;5.90;;;5.25;;
434;SDS011;204;48.942;9.256;2023-02-28T01:46:29;6.20;;;3.70;;
434;SDS011;204;48.942;9.256;2023-02-28T01:49:03;5.00;;;4.70;;
434;SDS011;204;48.942;9.256;2023-02-28T01:54:11;4.75;;;4.13;;
434;SDS011;204;48.942;9.256;2023-02-28T01:56:46;4.40;;;4.10;;
434;SDS011;204;48.942;9.256;2023-02-28T01:59:20;3.50;;;3.40;;
434;SDS011;204;48.942;9.256;2023-02-28T02:01:50;5.47;;;4.82;;
434;SDS011;204;48.942;9.256;2023-02-28T02:04:16;5.73;;;5.43;;
434;SDS011;204;48.942;9.256;2023-02-28T02:06:43;4.60;;;4.30;;
434;SDS011;204;48.942;9.256;2023-02-28T02:09:12;4.68;;;4.43;;
434;SDS011;204;48.942;9.256;2023-02-28T02:11:39;5.23;;;4.93;;
434;SDS011;204;48.942;9.256;2023-02-28T02:20:08;5.20;;;4.90;;
434;SDS011;204;48.942;9.256;2023-02-28T02:25:56;5.18;;;4.80;;
434;SDS011;204;48.942;9.256;2023-02-28T02:36:45;5.03;;;4.72;;
434;SDS011;204;48.942;9.256;2023-02-28T02:39:19;5.38;;;4.95;;
434;SDS011;204;48.942;9.256;2023-02-28T02:42:04;5.05;;;4.80;;
434;SDS011;204;48.942;9.256;2023-02-28T02:44:40;5.60;;;5.30;;
434;SDS011;204;48.942;9.256;2023-02-28T02:47:12;5.75;;;5.07;;
434;SDS011;204;48.942;9.256;2023-02-28T02:49:43;5.63;;;5.32;;
434;SDS011;204;48.942;9.256;2023-02-28T02:52:14;5.22;;;4.95;;
434;SDS011;204;48.942;9.256;2023-02-28T02:54:46;6.03;;;5.45;;
434;SDS011;204;48.942;9.256;2023-02-28T02:57:17;6.05;;;5.55;;
434;SDS011;204;48.942;9.256;2023-02-28T02:59:55;5.30;;;5.00;;
434;SDS011;204;48.942;9.256;2023-02-28T03:02:22;7.03;;;5.63;;
434;SDS011;204;48.942;9.256;2023-02-28T03:04:53;5.50;;;5.15;;
434;SDS011;204;48.942;9.256;2023-02-28T03:07:25;5.47;;;5.18;;
434;SDS011;204;48.942;9.256;2023-02-28T03:09:52;5.40;;;5.10;;
434;SDS011;204;48.942;9.256;2023-02-28T03:12:18;5.30;;;5.00;;
434;SDS011;204;48.942;9.256;2023-02-28T03:28:41;7.28;;;5.15;;
434;SDS011;204;48.942;9.256;2023-02-28T03:33:44;5.57;;;4.88;;
434;SDS011;204;48.942;9.256;2023-02-28T03:36:20;5.32;;;5.03;;
434;SDS011;204;48.942;9.256;2023-02-28T03:38:51;6.13;;;5.80;;
434;SDS011;204;48.942;9.256;2023-02-28T03:41:27;4.70;;;4.40;;
434;SDS011;204;48.942;9.256;2023-02-28T03:44:12;4.97;;;4.68;;
434;SDS011;204;48.942;9.256;2023-02-28T03:49:53;7.47;;;5.70;;
434;SDS011;204;48.942;9.256;2023-02-28T03:52:33;5.85;;;5.55;;
434;SDS011;204;48.942;9.256;2023-02-28T03:55:02;8.30;;;5.72;;
434;SDS011;204;48.942;9.256;2023-02-28T04:00:07;5.45;;;5.10;;
434;SDS011;204;48.942;9.256;2023-02-28T04:02:37;7.05;;;6.63;;
434;SDS011;204;48.942;9.256;2023-02-28T04:05:04;5.45;;;5.15;;
434;SDS011;204;48.942;9.256;2023-02-28T04:07:30;5.78;;;5.50;;
434;SDS011;204;48.942;9.256;2023-02-28T04:09:56;6.20;;;5.10;;
434;SDS011;204;48.942;9.256;2023-02-28T04:12:22;5.53;;;5.22;;
434;SDS011;204;48.942;9.256;2023-02-28T04:14:49;5.60;;;5.30;;
434;SDS011;204;48.942;9.256;2023-02-28T04:17:15;6.95;;;5.75;;
434;SDS011;204;48.942;9.256;2023-02-28T04:19:41;5.40;;;5.10;;
434;SDS011;204;48.942;9.256;2023-02-28T04:22:07;6.83;;;6.10;;
434;SDS011;204;48.942;9.256;2023-02-28T04:24:34;5.95;;;5.53;;
434;SDS011;204;48.942;9.256;2023-02-28T04:27:00;6.23;;;5.53;;
434;SDS011;204;48.942;9.256;2023-02-28T04:29:32;5.90;;;5.63;;
434;SDS011;204;48.942;9.256;2023-02-28T04:31:58;6.80;;;6.40;;
434;SDS011;204;48.942;9.256;2023-02-28T04:34:25;7.25;;;5.75;;
434;SDS011;204;48.942;9.256;2023-02-28T04:36:52;6.65;;;6.13;;
434;SDS011;204;48.942;9.256;2023-02-28T04:39:20;5.57;;;5.28;;
434;SDS011;204;48.942;9.256;2023-02-28T04:41:46;6.25;;;5.63;;
434;SDS011;204;48.942;9.256;2023-02-28T04:44:12;5.97;;;5.70;;
434;SDS011;204;48.942;9.256;2023-02-28T04:46:38;7.00;;;6.40;;
434;SDS011;204;48.942;9.256;2023-02-28T04:49:04;6.70;;;5.40;;
434;SDS011;204;48.942;9.256;2023-02-28T04:51:29;7.33;;;6.10;;
434;SDS011;204;48.942;9.256;2023-02-28T04:53:55;7.00;;;6.10;;
434;SDS011;204;48.942;9.256;2023-02-28T04:56:21;8.17;;;6.90;;
434;SDS011;204;48.942;9.256;2023-02-28T04:58:47;6.95;;;6.45;;
434;SDS011;204;48.942;9.256;2023-02-28T05:01:30;6.65;;;6.25;;
434;SDS011;204;48.942;9.256;2023-02-28T05:03:59;6.80;;;6.40;;
434;SDS011;204;48.942;9.256;2023-02-28T05:06:27;6.60;;;6.20;;
434;SDS011;204;48.942;9.256;2023-02-28T05:08:54;7.70;;;6.75;;
434;SDS011;204;48.942;9.256;2023-02-28T05:11:21;6.50;;;6.10;;
434;SDS011;204;48.942;9.256;2023-02-28T05:13:49;7.60;;;6.38;;
434;SDS011;204;48.942;9.256;2023-02-28T05:16:15;7.30;;;5.82;;
434;SDS011;204;48.942;9.256;2023-02-28T05:18:41;7.73;;;6.17;;
434;SDS011;204;48.942;9.256;2023-02-28T05:23:56;8.35;;;6.45;;
434;SDS011;204;48.942;9.256;2023-02-28T05:26:26;7.68;;;7.28;;
434;SDS011;204;48.942;9.256;2023-02-28T05:28:52;8.50;;;6.43;;
434;SDS011;204;48.942;9.256;2023-02-28T05:31:18;8.37;;;7.00;;
434;SDS011;204;48.942;9.256;2023-02-28T05:33:44;9.15;;;6.38;;
434;SDS011;204;48.942;9.256;2023-02-28T05:36:10;6.17;;;5.90;;
434;SDS011;204;48.942;9.256;2023-02-28T05:38:36;9.70;;;7.23;;
434;SDS011;204;48.942;9.256;2023-02-28T05:41:04;6.80;;;6.43;;
434;SDS011;204;48.942;9.256;2023-02-28T05:43:34;6.85;;;6.40;;
434;SDS011;204;48.942;9.256;2023-02-28T05:46:09;7.03;;;6.65;;
434;SDS011;204;48.942;9.256;2023-02-28T05:48:37;8.93;;;7.53;;
434;SDS011;204;48.942;9.256;2023-02-28T05:51:04;6.32;;;5.75;;
434;SDS011;204;48.942;9.256;2023-02-28T05:53:31;7.28;;;6.35;;
434;SDS011;204;48.942;9.256;2023-02-28T05:55:57;7.50;;;6.82;;
434;SDS011;204;48.942;9.256;2023-02-28T05:58:22;8.17;;;7.40;;
434;SDS011;204;48.942;9.256;2023-02-28T06:00:50;11.82;;;7.13;;
434;SDS011;204;48.942;9.256;2023-02-28T06:03:15;8.07;;;7.67;;
434;SDS011;204;48.942;9.256;2023-02-28T06:05:41;10.93;;;6.80;;
434;SDS011;204;48.942;9.256;2023-02-28T06:08:06;8.00;;;7.60;;
434;SDS011;204;48.942;9.256;2023-02-28T06:10:35;7.60;;;7.17;;
434;SDS011;204;48.942;9.256;2023-02-28T06:13:01;7.60;;;6.40;;
434;SDS011;204;48.942;9.256;2023-02-28T06:15:28;7.75;;;7.35;;
434;SDS011;204;48.942;9.256;2023-02-28T06:17:54;8.90;;;7.53;;
434;SDS011;204;48.942;9.256;2023-02-28T06:20:21;6.68;;;6.03;;
434;SDS011;204;48.942;9.256;2023-02-28T06:22:47;7.80;;;7.43;;
434;SDS011;204;48.942;9.256;2023-02-28T06:25:15;8.80;;;8.07;;
434;SDS011;204;48.942;9.256;2023-02-28T06:27:41;11.50;;;7.20;;
434;SDS011;204;48.942;9.256;2023-02-28T06:30:08;10.15;;;7.75;;
434;SDS011;204;48.942;9.256;2023-02-28T06:32:34;7.80;;;7.40;;
434;SDS011;204;48.942;9.256;2023-02-28T06:35:01;8.00;;;7.07;;
434;SDS011;204;48.942;9.256;2023-02-28T06:37:27;8.93;;;7.15;;
434;SDS011;204;48.942;9.256;2023-02-28T06:39:53;10.60;;;7.63;;
434;SDS011;204;48.942;9.256;2023-02-28T06:42:21;9.43;;;7.30;;
434;SDS011;204;48.942;9.256;2023-02-28T06:44:49;10.88;;;8.52;;
434;SDS011;204;48.942;9.256;2023-02-28T06:47:15;7.70;;;7.30;;
434;SDS011;204;48.942;9.256;2023-02-28T06:49:41;8.83;;;7.20;;
434;SDS011;204;48.942;9.256;2023-02-28T06:52:07;8.80;;;7.70;;
434;SDS011;204;48.942;9.256;2023-02-28T06:54:33;7.60;;;7.03;;
434;SDS011;204;48.942;9.256;2023-02-28T06:56:59;8.77;;;7.07;;
434;SDS011;204;48.942;9.256;2023-02-28T06:59:24;7.77;;;7.37;;
434;SDS011;204;48.942;9.256;2023-02-28T07:01:50;8.50;;;7.63;;
434;SDS011;204;48.942;9.256;2023-02-28T07:04:15;7.60;;;7.20;;
434;SDS011;204;48.942;9.256;2023-02-28T07:06:41;8.30;;;6.90;;
434;SDS011;204;48.942;9.256;2023-02-28T07:09:07;8.03;;;7.63;;
434;SDS011;204;48.942;9.256;2023-02-28T07:11:33;9.68;;;8.00;;
434;SDS011;204;48.942;9.256;2023-02-28T07:13:59;8.93;;;8.20;;
434;SDS011;204;48.942;9.256;2023-02-28T07:16:24;8.50;;;7.50;;
434;SDS011;204;48.942;9.256;2023-02-28T07:18:52;7.60;;;7.00;;
434;SDS011;204;48.942;9.256;2023-02-28T07:21:19;8.05;;;7.65;;
434;SDS011;204;48.942;9.256;2023-02-28T07:23:44;7.50;;;7.10;;
434;SDS011;204;48.942;9.256;2023-02-28T07:26:11;8.60;;;7.77;;
434;SDS011;204;48.942;9.256;2023-02-28T07:28:39;8.00;;;7.38;;
434;SDS011;204;48.942;9.256;2023-02-28T07:31:08;7.97;;;7.65;;
434;SDS011;204;48.942;9.256;2023-02-28T07:33:35;7.93;;;7.40;;
434;SDS011;204;48.942;9.256;2023-02-28T07:36:02;8.80;;;7.40;;
434;SDS011;204;48.942;9.256;2023-02-28T07:38:29;9.55;;;7.90;;
434;SDS011;204;48.942;9.256;2023-02-28T07:40:54;7.97;;;7.10;;
434;SDS011;204;48.942;9.256;2023-02-28T07:43:20;8.80;;;7.90;;
434;SDS011;204;48.942;9.256;2023-02-28T07:45:45;8.57;;;8.07;;
434;SDS011;204;48.942;9.256;2023-02-28T07:48:11;13.50;;;8.50;;
434;SDS011;204;48.942;9.256;2023-02-28T07:50:37;9.73;;;8.73;;
434;SDS011;204;48.942;9.256;2023-02-28T07:53:02;8.83;;;8.17;;
434;SDS011;204;48.942;9.256;2023-02-28T07:55:29;8.43;;;7.88;;
434;SDS011;204;48.942;9.256;2023-02-28T07:57:56;10.20;;;7.30;;
434;SDS011;204;48.942;9.256;2023-02-28T08:00:22;7.75;;;7.15;;
434;SDS011;204;48.942;9.256;2023-02-28T08:02:48;8.50;;;8.00;;
434;SDS011;204;48.942;9.256;2023-02-28T08:05:14;8.00;;;7.60;;
434;SDS011;204;48.942;9.256;2023-02-28T08:07:39;10.37;;;8.93;;
434;SDS011;204;48.942;9.256;2023-02-28T08:10:05;8.70;;;8.20;;
434;SDS011;204;48.942;9.256;2023-02-28T08:12:32;8.23;;;7.82;;
434;SDS011;204;48.942;9.256;2023-02-28T08:14:57;11.43;;;9.60;;
434;SDS011;204;48.942;9.256;2023-02-28T08:17:23;12.40;;;8.87;;
434;SDS011;204;48.942;9.256;2023-02-28T08:19:48;9.90;;;9.20;;
434;SDS011;204;48.942;9.256;2023-02-28T08:22:14;11.10;;;8.97;;
434;SDS011;204;48.942;9.256;2023-02-28T08:24:43;10.47;;;8.33;;
434;SDS011;204;48.942;9.256;2023-02-28T08:27:09;8.98;;;8.45;;
434;SDS011;204;48.942;9.256;2023-02-28T08:29:36;9.10;;;8.60;;
434;SDS011;204;48.942;9.256;2023-02-28T08:32:02;10.70;;;9.68;;
434;SDS011;204;48.942;9.256;2023-02-28T08:34:29;9.98;;;8.88;;
434;SDS011;204;48.942;9.256;2023-02-28T08:36:54;11.43;;;9.17;;
434;SDS011;204;48.942;9.256;2023-02-28T08:39:20;15.10;;;9.77;;
434;SDS011;204;48.942;9.256;2023-02-28T08:41:46;12.27;;;9.63;;
434;SDS011;204;48.942;9.256;2023-02-28T08:44:11;13.27;;;9.90;;
434;SDS011;204;48.942;9.256;2023-02-28T08:46:37;13.27;;;10.23;;
434;SDS011;204;48.942;9.256;2023-02-28T08:49:03;13.60;;;9.75;;
434;SDS011;204;48.942;9.256;2023-02-28T08:51:29;10.03;;;9.53;;
434;SDS011;204;48.942;9.256;2023-02-28T08:53:57;11.47;;;8.97;;
434;SDS011;204;48.942;9.256;2023-02-28T08:56:25;12.75;;;10.05;;
434;SDS011;204;48.942;9.256;2023-02-28T08:58:53;10.75;;;10.10;;
434;SDS011;204;48.942;9.256;2023-02-28T09:01:24;9.48;;;8.98;;
434;SDS011;204;48.942;9.256;2023-02-28T09:03:55;10.25;;;9.45;;
434;SDS011;204;48.942;9.256;2023-02-28T09:06:22;11.60;;;9.80;;
434;SDS011;204;48.942;9.256;2023-02-28T09:08:50;12.65;;;10.07;;
434;SDS011;204;48.942;9.256;2023-02-28T09:11:16;10.82;;;9.52;;
434;SDS011;204;48.942;9.256;2023-02-28T09:13:41;9.30;;;8.10;;
434;SDS011;204;48.942;9.256;2023-02-28T09:16:08;11.60;;;9.57;;
434;SDS011;204;48.942;9.256;2023-02-28T09:18:36;12.00;;;11.00;;
434;SDS011;204;48.942;9.256;2023-02-28T09:21:13;10.90;;;8.90;;
434;SDS011;204;48.942;9.256;2023-02-28T09:23:41;10.38;;;8.75;;
434;SDS011;204;48.942;9.256;2023-02-28T09:26:11;9.82;;;9.32;;
434;SDS011;204;48.942;9.256;2023-02-28T09:28:39;12.77;;;9.98;;
434;SDS011;204;48.942;9.256;2023-02-28T09:31:04;11.67;;;9.83;;
434;SDS011;204;48.942;9.256;2023-02-28T09:33:30;12.20;;;9.97;;
434;SDS011;204;48.942;9.256;2023-02-28T09:35:59;10.20;;;8.93;;
434;SDS011;204;48.942;9.256;2023-02-28T09:38:27;9.35;;;8.73;;
434;SDS011;204;48.942;9.256;2023-02-28T09:43:22;16.63;;;9.98;;
434;SDS011;204;48.942;9.256;2023-02-28T09:48:27;9.68;;;9.18;;
434;SDS011;204;48.942;9.256;2023-02-28T09:51:04;9.48;;;9.00;;
434;SDS011;204;48.942;9.256;2023-02-28T09:53:33;9.63;;;9.15;;
434;SDS011;204;48.942;9.256;2023-02-28T09:56:04;12.00;;;9.35;;
434;SDS011;204;48.942;9.256;2023-02-28T09:58:41;8.73;;;8.25;;
434;SDS011;204;48.942;9.256;2023-02-28T10:01:10;9.98;;;9.43;;
434;SDS011;204;48.942;9.256;2023-02-28T10:04:08;11.43;;;9.18;;
434;SDS011;204;48.942;9.256;2023-02-28T10:06:49;13.52;;;10.20;;
434;SDS011;204;48.942;9.256;2023-02-28T10:11:53;9.98;;;9.48;;
434;SDS011;204;48.942;9.256;2023-02-28T10:14:23;10.63;;;9.20;;
434;SDS011;204;48.942;9.256;2023-02-28T10:22:37;10.63;;;10.02;;
434;SDS011;204;48.942;9.256;2023-02-28T10:25:16;8.45;;;8.02;;
434;SDS011;204;48.942;9.256;2023-02-28T10:27:44;9.52;;;9.05;;
434;SDS011;204;48.942;9.256;2023-02-28T10:30:10;10.05;;;9.43;;
434;SDS011;204;48.942;9.256;2023-02-28T10:32:39;11.20;;;9.38;;
434;SDS011;204;48.942;9.256;2023-02-28T10:37:40;10.32;;;9.25;;
434;SDS011;204;48.942;9.256;2023-02-28T10:42:55;9.50;;;9.05;;
434;SDS011;204;48.942;9.256;2023-02-28T10:45:22;10.07;;;9.57;;
434;SDS011;204;48.942;9.256;2023-02-28T10:47:53;11.30;;;9.60;;
434;SDS011;204;48.942;9.256;2023-02-28T10:55:35;11.68;;;11.07;;
434;SDS011;204;48.942;9.256;2023-02-28T10:58:02;11.25;;;9.55;;
434;SDS011;204;48.942;9.256;2023-02-28T11:00:32;12.75;;;9.70;;
434;SDS011;204;48.942;9.256;2023-02-28T11:02:59;12.13;;;9.30;;
434;SDS011;204;48.942;9.256;2023-02-28T11:08:02;10.82;;;8.98;;
434;SDS011;204;48.942;9.256;2023-02-28T11:10:30;9.55;;;9.05;;
434;SDS011;204;48.942;9.256;2023-02-28T11:12:59;10.20;;;9.38;;
434;SDS011;204;48.942;9.256;2023-02-28T11:15:27;11.98;;;10.13;;
434;SDS011;204;48.942;9.256;2023-02-28T11:17:56;9.85;;;9.35;;
434;SDS011;204;48.942;9.256;2023-02-28T11:20:28;8.95;;;8.35;;
434;SDS011;204;48.942;9.256;2023-02-28T11:22:56;10.10;;;8.98;;
434;SDS011;204;48.942;9.256;2023-02-28T11:25:27;12.55;;;10.27;;
434;SDS011;204;48.942;9.256;2023-02-28T11:27:57;10.90;;;9.52;;
434;SDS011;204;48.942;9.256;2023-02-28T11:33:22;9.68;;;8.80;;
434;SDS011;204;48.942;9.256;2023-02-28T11:36:09;9.98;;;9.07;;
434;SDS011;204;48.942;9.256;2023-02-28T11:38:46;9.88;;;8.68;;
434;SDS011;204;48.942;9.256;2023-02-28T11:41:27;10.13;;;8.95;;
434;SDS011;204;48.942;9.256;2023-02-28T11:44:17;11.23;;;10.65;;
434;SDS011;204;48.942;9.256;2023-02-28T11:46:59;10.43;;;9.90;;
434;SDS011;204;48.942;9.256;2023-02-28T12:00:15;9.50;;;8.05;;
434;SDS011;204;48.942;9.256;2023-02-28T12:02:52;8.18;;;7.78;;
434;SDS011;204;48.942;9.256;2023-02-28T12:05:41;12.18;;;9.43;;
434;SDS011;204;48.942;9.256;2023-02-28T12:13:55;9.60;;;9.10;;
434;SDS011;204;48.942;9.256;2023-02-28T12:19:19;9.55;;;9.05;;
434;SDS011;204;48.942;9.256;2023-02-28T12:27:20;8.60;;;8.15;;
434;SDS011;204;48.942;9.256;2023-02-28T12:29:50;10.45;;;9.23;;
434;SDS011;204;48.942;9.256;2023-02-28T12:32:26;8.93;;;8.43;;
434;SDS011;204;48.942;9.256;2023-02-28T12:37:36;9.60;;;9.10;;
434;SDS011;204;48.942;9.256;2023-02-28T12:40:27;8.32;;;7.90;;
434;SDS011;204;48.942;9.256;2023-02-28T12:42:58;9.20;;;8.70;;
434;SDS011;204;48.942;9.256;2023-02-28T12:45:43;9.05;;;8.40;;
434;SDS011;204;48.942;9.256;2023-02-28T12:48:29;9.63;;;8.90;;
434;SDS011;204;48.942;9.256;2023-02-28T12:51:02;10.27;;;9.75;;
434;SDS011;204;48.942;9.256;2023-02-28T12:56:13;7.85;;;7.45;;
434;SDS011;204;48.942;9.256;2023-02-28T12:58:58;8.65;;;8.15;;
434;SDS011;204;48.942;9.256;2023-02-28T13:10:16;10.27;;;9.13;;
434;SDS011;204;48.942;9.256;2023-02-28T13:12:50;10.82;;;8.85;;
434;SDS011;204;48.942;9.256;2023-02-28T13:15:27;11.68;;;9.35;;
434;SDS011;204;48.942;9.256;2023-02-28T13:17:56;11.45;;;9.40;;
434;SDS011;204;48.942;9.256;2023-02-28T13:20:28;13.00;;;10.15;;
434;SDS011;204;48.942;9.256;2023-02-28T13:22:58;10.70;;;9.57;;
434;SDS011;204;48.942;9.256;2023-02-28T13:28:11;10.00;;;9.50;;
434;SDS011;204;48.942;9.256;2023-02-28T13:33:33;12.70;;;10.55;;
434;SDS011;204;48.942;9.256;2023-02-28T13:38:35;9.85;;;9.23;;
434;SDS011;204;48.942;9.256;2023-02-28T13:49:30;11.05;;;10.45;;
434;SDS011;204;48.942;9.256;2023-02-28T14:00:17;12.05;;;9.60;;
434;SDS011;204;48.942;9.256;2023-02-28T14:06:07;16.40;;;11.60;;
434;SDS011;204;48.942;9.256;2023-02-28T14:08:46;11.82;;;9.60;;
434;SDS011;204;48.942;9.256;2023-02-28T14:11:32;10.90;;;10.27;;
434;SDS011;204;48.942;9.256;2023-02-28T14:13:59;14.05;;;11.02;;
434;SDS011;204;48.942;9.256;2023-02-28T14:16:27;13.38;;;11.52;;
434;SDS011;204;48.942;9.256;2023-02-28T14:19:20;11.18;;;10.18;;
434;SDS011;204;48.942;9.256;2023-02-28T14:27:06;11.27;;;10.73;;
434;SDS011;204;48.942;9.256;2023-02-28T14:33:05;10.63;;;10.05;;
434;SDS011;204;48.942;9.256;2023-02-28T14:38:30;10.95;;;9.75;;
434;SDS011;204;48.942;9.256;2023-02-28T14:41:00;11.43;;;10.27;;
434;SDS011;204;48.942;9.256;2023-02-28T14:43:31;11.20;;;10.60;;
434;SDS011;204;48.942;9.256;2023-02-28T14:46:01;11.00;;;9.67;;
434;SDS011;204;48.942;9.256;2023-02-28T14:48:29;10.88;;;10.27;;
434;SDS011;204;48.942;9.256;2023-02-28T14:50:58;10.23;;;9.50;;
434;SDS011;204;48.942;9.256;2023-02-28T14:53:27;10.80;;;10.20;;
434;SDS011;204;48.942;9.256;2023-02-28T14:55:55;10.00;;;9.50;;
434;SDS011;204;48.942;9.256;2023-02-28T15:00:58;10.55;;;9.32;;
434;SDS011;204;48.942;9.256;2023-02-28T15:05:57;16.00;;;14.27;;
434;SDS011;204;48.942;9.256;2023-02-28T15:08:25;15.20;;;12.95;;
434;SDS011;204;48.942;9.256;2023-02-28T15:13:22;11.50;;;10.85;;
434;SDS011;204;48.942;9.256;2023-02-28T15:15:58;11.65;;;11.10;;
434;SDS011;204;48.942;9.256;2023-02-28T15:21:52;15.02;;;11.73;;
434;SDS011;204;48.942;9.256;2023-02-28T15:24:37;15.02;;;13.75;;
434;SDS011;204;48.942;9.256;2023-02-28T15:27:07;10.20;;;9.70;;
434;SDS011;204;48.942;9.256;2023-02-28T15:30:01;14.05;;;11.93;;
434;SDS011;204;48.942;9.256;2023-02-28T15:32:32;10.45;;;9.77;;
434;SDS011;204;48.942;9.256;2023-02-28T15:35:24;11.70;;;11.13;;
434;SDS011;204;48.942;9.256;2023-02-28T15:38:14;12.40;;;11.80;;
434;SDS011;204;48.942;9.256;2023-02-28T15:40:51;11.10;;;10.07;;
434;SDS011;204;48.942;9.256;2023-02-28T15:43:26;9.90;;;9.40;;
434;SDS011;204;48.942;9.256;2023-02-28T15:45:57;10.68;;;9.32;;
434;SDS011;204;48.942;9.256;2023-02-28T15:50:57;9.95;;;9.50;;
434;SDS011;204;48.942;9.256;2023-02-28T15:53:47;10.30;;;9.82;;
434;SDS011;204;48.942;9.256;2023-02-28T15:56:27;11.85;;;11.25;;
434;SDS011;204;48.942;9.256;2023-02-28T15:58:54;11.50;;;9.65;;
434;SDS011;204;48.942;9.256;2023-02-28T16:01:25;12.60;;;10.90;;
434;SDS011;204;48.942;9.256;2023-02-28T16:03:56;11.93;;;10.43;;
434;SDS011;204;48.942;9.256;2023-02-28T16:08:59;11.63;;;9.98;;
434;SDS011;204;48.942;9.256;2023-02-28T16:11:24;11.10;;;10.53;;
434;SDS011;204;48.942;9.256;2023-02-28T16:13:50;14.60;;;10.73;;
434;SDS011;204;48.942;9.256;2023-02-28T16:16:20;11.57;;;10.95;;
434;SDS011;204;48.942;9.256;2023-02-28T16:18:49;13.57;;;10.15;;
434;SDS011;204;48.942;9.256;2023-02-28T16:21:14;11.47;;;10.43;;
434;SDS011;204;48.942;9.256;2023-02-28T16:23:40;13.10;;;11.30;;
434;SDS011;204;48.942;9.256;2023-02-28T16:26:06;12.32;;;10.95;;
434;SDS011;204;48.942;9.256;2023-02-28T16:28:35;11.45;;;10.52;;
434;SDS011;204;48.942;9.256;2023-02-28T16:31:03;11.63;;;10.20;;
434;SDS011;204;48.942;9.256;2023-02-28T16:33:31;11.48;;;10.40;;
434;SDS011;204;48.942;9.256;2023-02-28T16:35:58;11.07;;;10.48;;
434;SDS011;204;48.942;9.256;2023-02-28T16:38:24;11.68;;;11.07;;
434;SDS011;204;48.942;9.256;2023-02-28T16:40:50;13.03;;;10.80;;
434;SDS011;204;48.942;9.256;2023-02-28T16:43:22;13.77;;;11.00;;
434;SDS011;204;48.942;9.256;2023-02-28T16:45:56;10.93;;;10.32;;
434;SDS011;204;48.942;9.256;2023-02-28T16:48:25;10.23;;;9.52;;
434;SDS011;204;48.942;9.256;2023-02-28T16:50:50;11.80;;;11.20;;
434;SDS011;204;48.942;9.256;2023-02-28T16:53:16;13.07;;;11.40;;
434;SDS011;204;48.942;9.256;2023-02-28T16:55:42;12.80;;;12.10;;
434;SDS011;204;48.942;9.256;2023-02-28T16:58:10;13.32;;;11.05;;
434;SDS011;204;48.942;9.256;2023-02-28T17:00:39;11.35;;;10.75;;
434;SDS011;204;48.942;9.256;2023-02-28T17:03:04;13.07;;;11.27;;
434;SDS011;204;48.942;9.256;2023-02-28T17:05:33;13.97;;;11.33;;
434;SDS011;204;48.942;9.256;2023-02-28T17:08:02;11.30;;;10.70;;
434;SDS011;204;48.942;9.256;2023-02-28T17:10:28;11.43;;;10.83;;
434;SDS011;204;48.942;9.256;2023-02-28T17:12:54;13.60;;;11.80;;
434;SDS011;204;48.942;9.256;2023-02-28T17:15:20;13.43;;;10.53;;
434;SDS011;204;48.942;9.256;2023-02-28T17:17:46;12.97;;;10.00;;
434;SDS011;204;48.942;9.256;2023-02-28T17:20:17;11.85;;;11.25;;
434;SDS011;204;48.942;9.256;2023-02-28T17:22:48;14.75;;;11.43;;
434;SDS011;204;48.942;9.256;2023-02-28T17:25:15;13.13;;;10.82;;
434;SDS011;204;48.942;9.256;2023-02-28T17:27:41;11.82;;;10.82;;
434;SDS011;204;48.942;9.256;2023-02-28T17:32:39;14.70;;;11.63;;
434;SDS011;204;48.942;9.256;2023-02-28T17:35:05;11.97;;;11.20;;
434;SDS011;204;48.942;9.256;2023-02-28T17:37:32;16.88;;;12.20;;
434;SDS011;204;48.942;9.256;2023-02-28T17:39:57;13.50;;;11.80;;
434;SDS011;204;48.942;9.256;2023-02-28T17:42:23;12.20;;;11.30;;
434;SDS011;204;48.942;9.256;2023-02-28T17:44:48;13.53;;;11.60;;
434;SDS011;204;48.942;9.256;2023-02-28T17:47:14;13.13;;;11.37;;
434;SDS011;204;48.942;9.256;2023-02-28T17:49:39;12.27;;;11.43;;
434;SDS011;204;48.942;9.256;2023-02-28T17:52:05;16.20;;;15.40;;
434;SDS011;204;48.942;9.256;2023-02-28T17:54:31;13.17;;;12.40;;
434;SDS011;204;48.942;9.256;2023-02-28T17:56:57;14.20;;;12.30;;
434;SDS011;204;48.942;9.256;2023-02-28T17:59:22;15.23;;;12.20;;
434;SDS011;204;48.942;9.256;2023-02-28T18:01:48;13.27;;;12.40;;
434;SDS011;204;48.942;9.256;2023-02-28T18:04:13;14.53;;;12.00;;
434;SDS011;204;48.942;9.256;2023-02-28T18:06:40;15.80;;;13.20;;
434;SDS011;204;48.942;9.256;2023-02-28T18:09:19;17.73;;;14.73;;
434;SDS011;204;48.942;9.256;2023-02-28T18:11:46;17.20;;;14.30;;
434;SDS011;204;48.942;9.256;2023-02-28T18:14:16;15.50;;;13.23;;
434;SDS011;204;48.942;9.256;2023-02-28T18:16:42;17.27;;;14.52;;
434;SDS011;204;48.942;9.256;2023-02-28T18:19:09;19.75;;;14.30;;
434;SDS011;204;48.942;9.256;2023-02-28T18:21:48;15.23;;;13.90;;
434;SDS011;204;48.942;9.256;2023-02-28T18:24:16;18.00;;;14.35;;
434;SDS011;204;48.942;9.256;2023-02-28T18:26:43;16.33;;;12.27;;
434;SDS011;204;48.942;9.256;2023-02-28T18:29:12;19.07;;;14.50;;
434;SDS011;204;48.942;9.256;2023-02-28T18:31:41;18.60;;;15.40;;
434;SDS011;204;48.942;9.256;2023-02-28T18:34:07;15.67;;;13.27;;
434;SDS011;204;48.942;9.256;2023-02-28T18:36:32;16.00;;;14.30;;
434;SDS011;204;48.942;9.256;2023-02-28T18:38:58;12.87;;;12.13;;